Terminal Aerodrome Forecast
Issued by NWS

Home | Current Version | Previous Version | Text Only | Print | Product List | Glossary On
Versions: 1 2 3 4 5 6 7 8 9 10 11 12 13 14 15 16 17 18 19 20
051
FTUS45 KFGZ 251139
TAFSEZ
TAF
KSEZ 251139Z 2512/2612 18012KT P6SM SCT130
     FM251600 20018G28KT P6SM SKC
     FM260230 22011G20KT P6SM SCT250
     FM260600 17007KT P6SM SKC=

USA.gov is the U.S. government's official web portal to all federal, state and local government web resources and services.